Back to Top

Language: 

My Weather Underground Personal Weather Station Historical Data with Graphs...

Delerius Weather Station Historical Data
Daily Summary for January 9, 2017 Units:  Metric    English   Both
« Previous Day
Next Day »
Daily Weekly Monthly Yearly Custom
  High: Low: Average:
Temperature: 9.9 °C 4.4 °C 7.1 °C
Dew Point: 8.2 °C 3.1 °C 5.7 °C
Humidity: 96 % 85 % 91 %
Wind Speed: 33.8 km/h 0 km/h 14.6 km/h
Wind Gust: 43.5 km/h - -
Wind:- - WSW
Pressure: 1025.3 hPa 1005.3 hPa -
Precipitation: 1.78 mm    
Historical Graphs
 
 
Tabular Data for January 9, 2017
Time Temperature Dew Point Pressure Wind Wind Speed Wind Gust Humidity Rainfall Rate (Hourly) solar Conditions
00:00 6.2 °C 5.6 °C 1025.3 hPa WSW 1.6 km/h 1.6 km/h 96 % 0 mm 0 W/m2
00:05 6.2 °C 5.6 °C 1025.3 hPa Calm   1.6 km/h 96 % 0 mm 0 W/m2
00:15 6.3 °C 5.7 °C 1025.3 hPa Calm     96 % 0 mm 0 W/m2
00:20 6.4 °C 5.8 °C 1024.9 hPa Calm   1.6 km/h 96 % 0 mm 0 W/m2
00:25 6.5 °C 5.9 °C 1024.9 hPa Calm   3.2 km/h 96 % 0 mm 0 W/m2
00:30 6.6 °C 6 °C 1024.9 hPa SSW 3.2 km/h 6.4 km/h 96 % 0 mm 0 W/m2
00:40 7 °C 6.4 °C 1024.6 hPa SW 8 km/h 8 km/h 96 % 0 mm 0 W/m2
00:45 7.1 °C 6.4 °C 1024.6 hPa SW 6.4 km/h 8 km/h 96 % 0 mm 0 W/m2
00:50 7.1 °C 6.3 °C 1024.3 hPa SW 1.6 km/h 6.4 km/h 95 % 0 mm 0 W/m2
00:55 7 °C 6.3 °C 1024.3 hPa SW 1.6 km/h 6.4 km/h 95 % 0 mm 0 W/m2
01:00 6.9 °C 6.2 °C 1024.3 hPa SW 1.6 km/h 1.6 km/h 95 % 0 mm 0 W/m2
01:05 6.8 °C 5.9 °C 1024.3 hPa SW 1.6 km/h 4.8 km/h 94 % 0 mm 0 W/m2
01:15 6.8 °C 6.1 °C 1023.9 hPa SW 1.6 km/h 6.4 km/h 95 % 0 mm 0 W/m2
01:20 6.8 °C 6.1 °C 1023.9 hPa SW 1.6 km/h 1.6 km/h 95 % 0 mm 0 W/m2
01:25 6.8 °C 6.1 °C 1023.9 hPa SW 3.2 km/h 3.2 km/h 95 % 0 mm 0 W/m2
01:30 6.9 °C 6.2 °C 1023.9 hPa SW 4.8 km/h 9.7 km/h 95 % 0 mm 0 W/m2
01:35 6.9 °C 6.2 °C 1023.9 hPa SW 4.8 km/h 9.7 km/h 95 % 0 mm 0 W/m2
01:40 6.9 °C 6.2 °C 1023.6 hPa SW 3.2 km/h 3.2 km/h 95 % 0 mm 0 W/m2
01:50 6.8 °C 5.9 °C 1023.6 hPa SW 1.6 km/h 1.6 km/h 94 % 0 mm 0 W/m2
01:55 6.8 °C 6.1 °C 1023.6 hPa SW 1.6 km/h 4.8 km/h 95 % 0 mm 0 W/m2
02:00 6.9 °C 6.2 °C 1023.2 hPa SW 3.2 km/h 3.2 km/h 95 % 0 mm 0 W/m2
02:05 6.9 °C 6.2 °C 1023.2 hPa SW 1.6 km/h 6.4 km/h 95 % 0 mm 0 W/m2
02:10 6.8 °C 5.9 °C 1022.9 hPa Calm   6.4 km/h 94 % 0 mm 0 W/m2
02:15 6.6 °C 5.7 °C 1022.9 hPa SW 1.6 km/h 6.4 km/h 94 % 0 mm 0 W/m2
02:20 6.6 °C 5.8 °C 1022.9 hPa SW 1.6 km/h 1.6 km/h 95 % 0 mm 0 W/m2
02:30 6.9 °C 6.3 °C 1022.9 hPa SW 3.2 km/h 3.2 km/h 96 % 0 mm 0 W/m2
02:35 6.9 °C 6.2 °C 1022.6 hPa SW 1.6 km/h 6.4 km/h 95 % 0 mm 0 W/m2
02:40 6.8 °C 6.1 °C 1022.6 hPa SW 1.6 km/h 1.6 km/h 95 % 0 mm 0 W/m2
02:45 6.6 °C 5.9 °C 1022.2 hPa SW 1.6 km/h 6.4 km/h 95 % 0 mm 0 W/m2
02:50 6.7 °C 6 °C 1022.2 hPa SW 1.6 km/h 1.6 km/h 95 % 0 mm 0 W/m2
03:00 6.8 °C 6.2 °C 1021.9 hPa SW 1.6 km/h 6.4 km/h 96 % 0 mm 0 W/m2
03:05 7 °C 6.4 °C 1021.9 hPa SW 3.2 km/h 6.4 km/h 96 % 0 mm 0 W/m2
03:10 7 °C 6.4 °C 1021.9 hPa SW 6.4 km/h 6.4 km/h 96 % 0 mm 0 W/m2
03:15 7.1 °C 6.4 °C 1021.6 hPa South 9.7 km/h 9.7 km/h 96 % 0 mm 0 W/m2
03:20 7.3 °C 6.7 °C 1021.6 hPa SW 9.7 km/h 9.7 km/h 96 % 0 mm 0 W/m2
03:25 7.6 °C 6.9 °C 1021.6 hPa SSW 9.7 km/h 9.7 km/h 96 % 0 mm 0 W/m2
03:35 7.8 °C 7.2 °C 1021.2 hPa SSE 9.7 km/h 14.5 km/h 96 % 0 mm 0 W/m2
03:40 7.9 °C 7.3 °C 1021.2 hPa South 9.7 km/h 11.3 km/h 96 % 0 mm 0 W/m2
03:45 8 °C 7.2 °C 1021.2 hPa SSW 8 km/h 11.3 km/h 95 % 0 mm 0 W/m2
03:55 8.1 °C 7.3 °C 1020.9 hPa SSE 9.7 km/h 12.9 km/h 95 % 0 mm 0 W/m2
04:05 8.3 °C 7.5 °C 1020.5 hPa South 9.7 km/h 9.7 km/h 95 % 0 mm 0 W/m2
04:10 8.3 °C 7.6 °C 1020.5 hPa South 9.7 km/h 9.7 km/h 95 % 0 mm 0 W/m2
04:15 8.4 °C 7.6 °C 1020.2 hPa SSE 9.7 km/h 12.9 km/h 95 % 0 mm 0 W/m2
04:20 8.4 °C 7.7 °C 1020.2 hPa SSE 9.7 km/h 9.7 km/h 95 % 0 mm 0 W/m2
04:30 8.5 °C 7.7 °C 1019.9 hPa SE 8 km/h 8 km/h 95 % 0 mm 0 W/m2
04:35 8.6 °C 7.8 °C 1019.5 hPa ESE 8 km/h 8 km/h 95 % 0 mm 0 W/m2
04:40 8.6 °C 7.7 °C 1019.2 hPa ESE 9.7 km/h 14.5 km/h 94 % 0 mm 0 W/m2
04:50 8.6 °C 7.7 °C 1018.8 hPa East 9.7 km/h 9.7 km/h 94 % 0 mm 0 W/m2
04:55 8.7 °C 7.8 °C 1018.8 hPa East 8 km/h 9.7 km/h 94 % 0 mm 0 W/m2
05:00 8.7 °C 7.8 °C 1018.8 hPa East 6.4 km/h 6.4 km/h 94 % 0 mm 0 W/m2
05:05 8.7 °C 7.8 °C 1018.8 hPa ESE 4.8 km/h 11.3 km/h 94 % 0 mm 0 W/m2
05:10 8.8 °C 7.9 °C 1018.8 hPa ENE 4.8 km/h 4.8 km/h 94 % 0 mm 0 W/m2
05:25 9 °C 8.1 °C 1018.5 hPa SW 6.4 km/h 16.1 km/h 94 % 0 mm 0 W/m2
05:30 9.2 °C 8.2 °C 1018.5 hPa West 12.9 km/h 12.9 km/h 93 % 0 mm 0 W/m2
05:40 9.6 °C 8.2 °C 1018.2 hPa SW 16.1 km/h 20.9 km/h 91 % 0 mm 0 W/m2
05:45 9.7 °C 8.2 °C 1018.2 hPa SW 20.9 km/h 37 km/h 90 % 0 mm 0 W/m2
05:50 9.8 °C 8.2 °C 1017.8 hPa SSW 20.9 km/h 29 km/h 90 % 0 mm 0 W/m2
05:55 9.8 °C 8.1 °C 1017.5 hPa SW 22.5 km/h 29 km/h 89 % 0 mm 0 W/m2
06:05 9.9 °C 8.1 °C 1017.2 hPa SW 25.7 km/h 38.6 km/h 88 % 0 mm 0 W/m2
06:15 9.9 °C 8.1 °C 1017.2 hPa WSW 25.7 km/h 25.7 km/h 88 % 0 mm 0 W/m2
06:20 9.9 °C 8.1 °C 1016.8 hPa SW 27.4 km/h 38.6 km/h 88 % 0 mm 0 W/m2
06:25 9.9 °C 8.2 °C 1016.8 hPa SW 29 km/h 38.6 km/h 89 % 0 mm 0 W/m2
06:35 9.9 °C 8.2 °C 1016.8 hPa SW 33.8 km/h 43.5 km/h 89 % 0 mm 0 W/m2
06:45 9.9 °C 8.2 °C 1016.8 hPa SW 30.6 km/h 38.6 km/h 89 % 0 mm 0 W/m2
06:50 9.9 °C 8.2 °C 1016.8 hPa SSW 29 km/h 37 km/h 89 % 0 mm 0 W/m2
07:00 9.8 °C 7.9 °C 1016.8 hPa West 22.5 km/h 22.5 km/h 88 % 0 mm 0 W/m2
07:05 9.8 °C 7.9 °C 1016.8 hPa SW 19.3 km/h 22.5 km/h 88 % 0 mm 0 W/m2
07:10 9.7 °C 7.8 °C 1016.5 hPa SSW 17.7 km/h 24.1 km/h 88 % 0 mm 0 W/m2
07:20 9.7 °C 7.6 °C 1016.5 hPa SSW 24.1 km/h 25.7 km/h 87 % 0 mm 0 W/m2
07:25 9.7 °C 7.6 °C 1016.5 hPa SSW 22.5 km/h 33.8 km/h 87 % 0 mm 0 W/m2
07:30 9.6 °C 7.4 °C 1016.1 hPa West 25.7 km/h 25.7 km/h 86 % 0 mm 0 W/m2
07:35 9.6 °C 7.3 °C 1016.1 hPa SW 25.7 km/h 32.2 km/h 86 % 0 mm 0 W/m2
07:45 9.6 °C 7.3 °C 1015.8 hPa WSW 29 km/h 29 km/h 86 % 0 mm 0 W/m2
07:50 9.5 °C 7.3 °C 1015.8 hPa WSW 27.4 km/h 40.2 km/h 86 % 0 mm 0 W/m2
07:55 9.4 °C 7.1 °C 1015.8 hPa WSW 27.4 km/h 40.2 km/h 85 % 0 mm 0 W/m2
08:00 9.4 °C 7 °C 1015.8 hPa WSW 29 km/h 32.2 km/h 85 % 0 mm 0 W/m2
08:05 9.4 °C 7 °C 1015.5 hPa WSW 30.6 km/h 32.2 km/h 85 % 0 mm 0 W/m2
08:10 9.3 °C 6.9 °C 1015.5 hPa SW 25.7 km/h 25.7 km/h 85 % 0 mm 0 W/m2
08:20 9.3 °C 6.9 °C 1015.5 hPa WSW 24.1 km/h 33.8 km/h 85 % 0 mm 0 W/m2
08:25 9.2 °C 7 °C 1015.5 hPa WSW 25.7 km/h 33.8 km/h 86 % 0 mm 0 W/m2
08:35 9.2 °C 7 °C 1015.1 hPa SSW 24.1 km/h 38.6 km/h 86 % 0 mm 5 W/m2
08:40 9.2 °C 6.9 °C 1015.1 hPa SW 25.7 km/h 25.7 km/h 86 % 0 mm 9 W/m2
08:45 9.2 °C 6.9 °C 1015.1 hPa SW 24.1 km/h 25.7 km/h 86 % 0 mm 5 W/m2
08:50 9.1 °C 7 °C 1014.8 hPa WSW 22.5 km/h 30.6 km/h 87 % 0 mm 5 W/m2
09:00 8.9 °C 7 °C 1014.8 hPa SW 24.1 km/h 37 km/h 88 % 0 mm 14 W/m2
09:05 8.8 °C 7.1 °C 1014.8 hPa WSW 25.7 km/h 37 km/h 89 % 2.03 mm 14 W/m2
09:10 8.7 °C 7.1 °C 1014.4 hPa WSW 24.1 km/h 29 km/h 90 % 2.03 mm 14 W/m2
09:15 8.7 °C 7.1 °C 1014.4 hPa SW 25.7 km/h 29 km/h 90 % 1.27 mm 14 W/m2
09:20 8.6 °C 7.1 °C 1014.1 hPa SSW 25.7 km/h 25.7 km/h 90 % 1.27 mm 12 W/m2
09:25 8.6 °C 7 °C 1014.1 hPa SSW 20.9 km/h 25.7 km/h 90 % 1.27 mm 14 W/m2
09:40 8.4 °C 7.1 °C 1013.8 hPa SSW 19.3 km/h 25.7 km/h 91 % 0 mm 14 W/m2
09:45 8.4 °C 7.1 °C 1013.8 hPa SSW 24.1 km/h 25.7 km/h 91 % 0 mm 21 W/m2
09:55 8.4 °C 7.1 °C 1013.4 hPa SW 22.5 km/h 32.2 km/h 91 % 0 mm 30 W/m2
10:00 8.4 °C 7.1 °C 1013.4 hPa WSW 22.5 km/h 22.5 km/h 91 % 0 mm 25 W/m2
10:05 8.5 °C 7.1 °C 1013.4 hPa SW 22.5 km/h 22.5 km/h 91 % 0 mm 21 W/m2
10:10 8.5 °C 7.1 °C 1013.4 hPa SSW 24.1 km/h 24.1 km/h 91 % 0 mm 16 W/m2
10:15 8.5 °C 7.1 °C 1013.1 hPa SW 22.5 km/h 24.1 km/h 91 % 0 mm 19 W/m2
10:20 8.5 °C 7.1 °C 1013.1 hPa SSW 22.5 km/h 29 km/h 91 % 0 mm 26 W/m2
10:25 8.5 °C 7.1 °C 1013.1 hPa SW 22.5 km/h 29 km/h 91 % 0 mm 26 W/m2
10:30 8.4 °C 7.2 °C 1013.1 hPa SSW 22.5 km/h 22.5 km/h 92 % 0 mm 26 W/m2
10:40 8.4 °C 7.2 °C 1012.8 hPa West 24.1 km/h 24.1 km/h 92 % 0 mm 46 W/m2
10:45 8.4 °C 7.2 °C 1012.4 hPa SW 22.5 km/h 29 km/h 92 % 0 mm 51 W/m2
10:50 8.4 °C 7.2 °C 1012.4 hPa SSW 22.5 km/h 25.7 km/h 92 % 0 mm 42 W/m2
10:55 8.4 °C 7.2 °C 1012.1 hPa SSW 24.1 km/h 25.7 km/h 92 % 0 mm 51 W/m2
11:00 8.4 °C 7.2 °C 1012.1 hPa SSW 24.1 km/h 24.1 km/h 92 % 0 mm 42 W/m2
11:05 8.4 °C 7.2 °C 1012.1 hPa South 24.1 km/h 24.1 km/h 92 % 0 mm 53 W/m2
11:10 8.4 °C 7.2 °C 1011.7 hPa South 24.1 km/h 24.1 km/h 92 % 0 mm 91 W/m2
11:20 8.5 °C 7.3 °C 1011.7 hPa South 24.1 km/h 24.1 km/h 92 % 0 mm 90 W/m2
11:25 8.6 °C 7.3 °C 1011.4 hPa SSW 24.1 km/h 30.6 km/h 92 % 0 mm 90 W/m2
11:30 8.6 °C 7.3 °C 1011.4 hPa SW 22.5 km/h 22.5 km/h 92 % 0 mm 65 W/m2
11:35 8.6 °C 7.4 °C 1011.4 hPa SSW 20.9 km/h 25.7 km/h 92 % 0 mm 102 W/m2
11:40 8.7 °C 7.3 °C 1011.1 hPa SSW 20.9 km/h 20.9 km/h 91 % 0 mm 63 W/m2
11:45 8.8 °C 7.4 °C 1011.1 hPa SSW 20.9 km/h 22.5 km/h 91 % 0 mm 49 W/m2
11:50 8.8 °C 7.4 °C 1011.1 hPa SSW 19.3 km/h 30.6 km/h 91 % 0 mm 60 W/m2
12:00 8.8 °C 7.4 °C 1010.7 hPa SSW 17.7 km/h 17.7 km/h 91 % 0 mm 47 W/m2
12:10 8.9 °C 7.6 °C 1010.4 hPa SSW 20.9 km/h 20.9 km/h 91 % 0 mm 60 W/m2
12:15 8.9 °C 7.6 °C 1010.4 hPa SW 19.3 km/h 20.9 km/h 91 % 0 mm 54 W/m2
12:20 8.9 °C 7.6 °C 1010.4 hPa SW 17.7 km/h 17.7 km/h 91 % 0 mm 60 W/m2
12:25 8.9 °C 7.6 °C 1010.4 hPa SSW 16.1 km/h 17.7 km/h 91 % 0 mm 35 W/m2
12:30 8.9 °C 7.7 °C 1010 hPa SSW 12.9 km/h 12.9 km/h 92 % 0 mm 56 W/m2
12:40 8.9 °C 7.7 °C 1010 hPa SW 12.9 km/h 12.9 km/h 92 % 0 mm 11 W/m2
12:45 8.9 °C 7.7 °C 1010.4 hPa WSW 12.9 km/h 12.9 km/h 92 % 0 mm 16 W/m2
12:50 8.8 °C 7.4 °C 1010.4 hPa WNW 17.7 km/h 17.7 km/h 91 % 0 mm 25 W/m2
12:55 8.3 °C 6.8 °C 1010.4 hPa West 20.9 km/h 25.7 km/h 90 % 0 mm 46 W/m2
13:00 8 °C 6.3 °C 1010.4 hPa WNW 20.9 km/h 20.9 km/h 89 % 0 mm 51 W/m2
13:05 7.8 °C 6.2 °C 1010.4 hPa WNW 17.7 km/h 20.9 km/h 90 % 0 mm 63 W/m2
13:15 7.6 °C 6.2 °C 1010.4 hPa WNW 14.5 km/h 16.1 km/h 91 % 0 mm 39 W/m2
13:20 7.6 °C 6.2 °C 1010.4 hPa West 14.5 km/h 22.5 km/h 91 % 0 mm 44 W/m2
13:25 7.4 °C 6.1 °C 1010.4 hPa WNW 14.5 km/h 22.5 km/h 91 % 0 mm 28 W/m2
13:30 7.3 °C 5.8 °C 1010.4 hPa WNW 16.1 km/h 16.1 km/h 90 % 0 mm 26 W/m2
13:40 7.1 °C 5.4 °C 1010.4 hPa West 14.5 km/h 19.3 km/h 89 % 0 mm 25 W/m2
13:45 7 °C 5.3 °C 1010.4 hPa SW 12.9 km/h 19.3 km/h 89 % 0 mm 26 W/m2
13:55 6.8 °C 5.2 °C 1010 hPa WSW 14.5 km/h 17.7 km/h 89 % 0 mm 70 W/m2
14:00 6.8 °C 5.3 °C 1010 hPa West 12.9 km/h 12.9 km/h 90 % 0 mm 74 W/m2
14:05 6.8 °C 5.4 °C 1010 hPa West 11.3 km/h 12.9 km/h 91 % 0 mm 51 W/m2
14:10 6.7 °C 5.3 °C 1010 hPa WSW 11.3 km/h 12.9 km/h 91 % 0 mm 53 W/m2
14:15 6.6 °C 5.2 °C 1010 hPa West 12.9 km/h 12.9 km/h 91 % 0 mm 53 W/m2
14:20 6.6 °C 5.1 °C 1009.7 hPa West 14.5 km/h 14.5 km/h 90 % 0 mm 56 W/m2
14:25 6.6 °C 5.1 °C 1009.7 hPa WNW 12.9 km/h 14.5 km/h 90 % 0 mm 77 W/m2
14:35 6.7 °C 5.2 °C 1009.7 hPa WSW 11.3 km/h 17.7 km/h 90 % 0 mm 132 W/m2
14:40 6.7 °C 5.2 °C 1009.7 hPa WSW 11.3 km/h 12.9 km/h 90 % 0 mm 30 W/m2
14:45 6.7 °C 5.1 °C 1009.4 hPa WNW 11.3 km/h 12.9 km/h 89 % 0 mm 32 W/m2
14:50 6.7 °C 5 °C 1009.4 hPa West 11.3 km/h 17.7 km/h 89 % 0 mm 33 W/m2
14:55 6.7 °C 4.8 °C 1009.4 hPa West 11.3 km/h 17.7 km/h 88 % 0 mm 35 W/m2
15:05 6.6 °C 4.7 °C 1009.4 hPa WNW 9.7 km/h 9.7 km/h 88 % 0 mm 23 W/m2
15:10 6.5 °C 4.7 °C 1009 hPa West 9.7 km/h 9.7 km/h 88 % 0 mm 23 W/m2
15:15 6.5 °C 4.7 °C 1009 hPa WNW 9.7 km/h 9.7 km/h 88 % 0 mm 44 W/m2
15:20 6.6 °C 4.9 °C 1009 hPa West 9.7 km/h 11.3 km/h 89 % 0 mm 70 W/m2
15:30 6.6 °C 4.7 °C 1009 hPa WNW 9.7 km/h 9.7 km/h 88 % 0 mm 19 W/m2
15:40 6.4 °C 4.4 °C 1009 hPa WNW 12.9 km/h 16.1 km/h 87 % 0 mm 12 W/m2
15:45 6.3 °C 4.3 °C 1009 hPa WNW 14.5 km/h 19.3 km/h 87 % 0 mm 9 W/m2
15:50 6.2 °C 4.2 °C 1009 hPa West 14.5 km/h 14.5 km/h 87 % 0 mm 9 W/m2
15:55 6.1 °C 4.1 °C 1008.7 hPa WNW 14.5 km/h 14.5 km/h 87 % 0 mm 7 W/m2
16:00 6 °C 4 °C 1009 hPa West 12.9 km/h 14.5 km/h 87 % 0 mm 7 W/m2
16:05 5.9 °C 3.9 °C 1009 hPa WNW 14.5 km/h 33.8 km/h 87 % 0 mm 5 W/m2
16:15 5.9 °C 3.9 °C 1009 hPa WNW 16.1 km/h 17.7 km/h 87 % 0 mm 0 W/m2
16:20 5.8 °C 3.6 °C 1009 hPa West 12.9 km/h 12.9 km/h 86 % 0 mm 0 W/m2
16:25 5.7 °C 3.7 °C 1009 hPa West 12.9 km/h 12.9 km/h 87 % 0 mm 0 W/m2
16:30 5.6 °C 3.6 °C 1009 hPa West 11.3 km/h 12.9 km/h 87 % 0 mm 0 W/m2
16:35 5.6 °C 3.6 °C 1008.7 hPa WNW 9.7 km/h 12.9 km/h 87 % 0 mm 0 W/m2
16:45 5.4 °C 3.4 °C 1008.7 hPa WSW 9.7 km/h 12.9 km/h 87 % 0 mm 0 W/m2
16:50 5.4 °C 3.6 °C 1008.7 hPa West 9.7 km/h 14.5 km/h 88 % 0 mm 0 W/m2
16:55 5.4 °C 3.6 °C 1008.4 hPa SW 8 km/h 14.5 km/h 88 % 0 mm 0 W/m2
17:00 5.4 °C 3.6 °C 1008.7 hPa SW 6.4 km/h 8 km/h 88 % 0 mm 0 W/m2
17:20 5.4 °C 3.7 °C 1008.7 hPa West 16.1 km/h 16.1 km/h 89 % 0 mm 0 W/m2
17:25 5.4 °C 3.7 °C 1008.7 hPa WNW 17.7 km/h 17.7 km/h 89 % 0 mm 0 W/m2
17:30 5.4 °C 3.7 °C 1008.7 hPa WNW 14.5 km/h 14.5 km/h 89 % 0 mm 0 W/m2
17:35 5.3 °C 3.8 °C 1008.7 hPa West 14.5 km/h 14.5 km/h 90 % 0 mm 0 W/m2
17:45 5.3 °C 3.9 °C 1009 hPa WNW 11.3 km/h 16.1 km/h 91 % 0 mm 0 W/m2
17:55 5.2 °C 3.7 °C 1008.7 hPa WNW 14.5 km/h 16.1 km/h 90 % 0 mm 0 W/m2
18:00 5.1 °C 3.6 °C 1008.7 hPa West 11.3 km/h 11.3 km/h 90 % 0 mm 0 W/m2
18:05 5 °C 3.5 °C 1008.7 hPa WNW 9.7 km/h 11.3 km/h 90 % 0 mm 0 W/m2
18:10 4.9 °C 3.4 °C 1008.7 hPa West 8 km/h 8 km/h 90 % 0 mm 0 W/m2
18:20 4.7 °C 3.2 °C 1008.4 hPa West 4.8 km/h 6.4 km/h 90 % 0 mm 0 W/m2
18:25 4.7 °C 3.2 °C 1008.7 hPa West 8 km/h 20.9 km/h 90 % 0 mm 0 W/m2
18:30 4.8 °C 3.5 °C 1008.4 hPa West 12.9 km/h 17.7 km/h 91 % 0 mm 0 W/m2
18:35 4.9 °C 3.6 °C 1008.4 hPa West 14.5 km/h 17.7 km/h 91 % 0 mm 0 W/m2
18:40 4.9 °C 3.6 °C 1008.4 hPa WNW 12.9 km/h 17.7 km/h 91 % 0 mm 0 W/m2
18:45 4.9 °C 3.4 °C 1008.4 hPa West 12.9 km/h 17.7 km/h 90 % 0 mm 0 W/m2
18:55 4.8 °C 3.3 °C 1008.4 hPa West 6.4 km/h 9.7 km/h 90 % 0 mm 0 W/m2
19:00 4.8 °C 3.4 °C 1008.4 hPa WSW 6.4 km/h 8 km/h 91 % 0 mm 0 W/m2
19:05 4.8 °C 3.4 °C 1008 hPa West 11.3 km/h 11.3 km/h 91 % 0 mm 0 W/m2
19:10 4.8 °C 3.5 °C 1008.4 hPa West 12.9 km/h 12.9 km/h 91 % 0 mm 0 W/m2
19:15 4.9 °C 3.6 °C 1008.4 hPa West 14.5 km/h 24.1 km/h 91 % 0 mm 0 W/m2
19:20 5.1 °C 3.6 °C 1008.4 hPa West 19.3 km/h 30.6 km/h 90 % 0 mm 0 W/m2
19:30 4.9 °C 3.4 °C 1008 hPa West 22.5 km/h 22.5 km/h 90 % 0 mm 0 W/m2
19:35 4.7 °C 3.2 °C 1008 hPa WNW 16.1 km/h 22.5 km/h 90 % 0 mm 0 W/m2
19:40 4.6 °C 3.1 °C 1008 hPa WNW 14.5 km/h 14.5 km/h 90 % 0 mm 0 W/m2
19:45 4.5 °C 3.2 °C 1007.7 hPa West 12.9 km/h 14.5 km/h 91 % 0 mm 0 W/m2
19:50 4.4 °C 3.1 °C 1007.7 hPa WNW 11.3 km/h 11.3 km/h 91 % 0 mm 0 W/m2
19:55 4.4 °C 3.1 °C 1007.7 hPa West 12.9 km/h 12.9 km/h 91 % 0 mm 0 W/m2
20:05 4.4 °C 3.1 °C 1007.3 hPa West 14.5 km/h 24.1 km/h 91 % 0 mm 0 W/m2
20:10 4.6 °C 3.2 °C 1007.7 hPa West 16.1 km/h 22.5 km/h 91 % 0 mm 0 W/m2
20:15 4.8 °C 3.5 °C 1008 hPa West 19.3 km/h 22.5 km/h 91 % 0 mm 0 W/m2
20:20 5 °C 3.7 °C 1007.7 hPa WSW 20.9 km/h 25.7 km/h 91 % 0 mm 0 W/m2
20:25 5 °C 3.7 °C 1007.7 hPa WSW 20.9 km/h 25.7 km/h 91 % 0 mm 0 W/m2
20:30 4.9 °C 3.6 °C 1007.3 hPa WSW 19.3 km/h 19.3 km/h 91 % 0 mm 0 W/m2
20:40 4.8 °C 3.4 °C 1007.3 hPa West 12.9 km/h 16.1 km/h 91 % 0 mm 0 W/m2
20:45 4.8 °C 3.5 °C 1007 hPa West 12.9 km/h 17.7 km/h 91 % 0 mm 0 W/m2
20:50 4.9 °C 3.6 °C 1007 hPa SW 12.9 km/h 16.1 km/h 91 % 0 mm 0 W/m2
20:55 5 °C 3.7 °C 1007 hPa WSW 12.9 km/h 22.5 km/h 91 % 0 mm 0 W/m2
21:00 5 °C 3.7 °C 1007 hPa WSW 11.3 km/h 12.9 km/h 91 % 0 mm 0 W/m2
21:05 5.1 °C 3.8 °C 1007 hPa WSW 12.9 km/h 19.3 km/h 91 % 0 mm 0 W/m2
21:10 5.2 °C 3.8 °C 1006.7 hPa WSW 14.5 km/h 14.5 km/h 91 % 0 mm 0 W/m2
21:15 5.2 °C 3.8 °C 1006.7 hPa West 12.9 km/h 14.5 km/h 91 % 0 mm 0 W/m2
21:25 5.1 °C 3.8 °C 1006.7 hPa West 17.7 km/h 25.7 km/h 91 % 0 mm 0 W/m2
21:30 5.2 °C 3.8 °C 1006.3 hPa West 20.9 km/h 20.9 km/h 91 % 0 mm 0 W/m2
21:35 5.2 °C 3.7 °C 1006.3 hPa West 19.3 km/h 20.9 km/h 90 % 0 mm 0 W/m2
21:40 5.2 °C 3.9 °C 1006.3 hPa West 16.1 km/h 19.3 km/h 91 % 0 mm 0 W/m2
21:50 5.3 °C 3.8 °C 1006.3 hPa West 16.1 km/h 16.1 km/h 90 % 0 mm 0 W/m2
21:55 5.3 °C 3.8 °C 1006.3 hPa West 17.7 km/h 19.3 km/h 90 % 0 mm 0 W/m2
22:00 5.3 °C 3.8 °C 1006.3 hPa West 17.7 km/h 17.7 km/h 90 % 0 mm 0 W/m2
22:05 5.3 °C 3.8 °C 1006.3 hPa WNW 17.7 km/h 17.7 km/h 90 % 0 mm 0 W/m2
22:10 5.2 °C 3.6 °C 1006.3 hPa West 17.7 km/h 17.7 km/h 89 % 0 mm 0 W/m2
22:20 5.2 °C 3.6 °C 1006 hPa SW 14.5 km/h 16.1 km/h 89 % 0 mm 0 W/m2
22:25 5.2 °C 3.6 °C 1006 hPa West 16.1 km/h 16.1 km/h 89 % 0 mm 0 W/m2
22:30 5.3 °C 3.6 °C 1006 hPa West 17.7 km/h 29 km/h 89 % 0 mm 0 W/m2
22:35 5.4 °C 3.6 °C 1005.6 hPa West 17.7 km/h 29 km/h 88 % 0 mm 0 W/m2
22:40 5.4 °C 3.6 °C 1005.6 hPa WNW 20.9 km/h 22.5 km/h 88 % 0 mm 0 W/m2
22:50 5.5 °C 3.7 °C 1006 hPa WSW 19.3 km/h 19.3 km/h 88 % 0 mm 0 W/m2
22:55 5.5 °C 3.7 °C 1005.6 hPa West 14.5 km/h 19.3 km/h 88 % 0 mm 0 W/m2
23:00 5.5 °C 3.7 °C 1005.6 hPa NW 17.7 km/h 17.7 km/h 88 % 0 mm 0 W/m2
23:05 5.6 °C 3.7 °C 1005.6 hPa West 19.3 km/h 19.3 km/h 88 % 0 mm 0 W/m2
23:10 5.6 °C 3.7 °C 1005.6 hPa WNW 19.3 km/h 20.9 km/h 88 % 0 mm 0 W/m2
23:15 5.7 °C 3.7 °C 1005.6 hPa West 20.9 km/h 20.9 km/h 87 % 0 mm 0 W/m2
23:25 5.6 °C 3.8 °C 1005.6 hPa West 14.5 km/h 19.3 km/h 88 % 0 mm 0 W/m2
23:30 5.5 °C 3.7 °C 1005.6 hPa West 14.5 km/h 14.5 km/h 88 % 0 mm 0 W/m2
23:35 5.4 °C 3.6 °C 1005.6 hPa West 12.9 km/h 14.5 km/h 88 % 0 mm 0 W/m2
23:40 5.3 °C 3.7 °C 1005.3 hPa West 11.3 km/h 11.3 km/h 89 % 0 mm 0 W/m2
23:45 5.3 °C 3.7 °C 1005.3 hPa West 12.9 km/h 14.5 km/h 89 % 0 mm 0 W/m2
23:50 5.3 °C 3.7 °C 1005.3 hPa West 16.1 km/h 19.3 km/h 89 % 0 mm 0 W/m2
Delerius-Weather
Compliments of Weather Underground - 2 mb

Data updates at regular intervals.